Time;durP1;ratioP1;P1;durP2;ratioP2;P2;SDS_P1;SDS_P2;PMS_P1;PMS_P2;Temp;Humidity;BMP_temperature;BMP_pressure;BME280_temperature;BME280_humidity;BME280_pressure;Samples;Min_cycle;Max_cycle;Signal;HPM_P1;HPM_P2
2022/08/15 00:01:49;;;;;;;0.00;0.00;;;;;;;;;;5086730;28;20236;-68
2022/08/15 00:04:15;;;;;;;0.00;0.00;;;;;;;;;;5086033;28;20274;-67
2022/08/15 00:06:43;;;;;;;0.00;0.00;;;;;;;;;;5085800;28;20239;-67
2022/08/15 00:09:11;;;;;;;0.00;0.00;;;;;;;;;;5086067;28;20203;-68
2022/08/15 00:11:40;;;;;;;0.00;0.00;;;;;;;;;;5085409;28;20288;-67
2022/08/15 00:14:09;;;;;;;0.00;0.00;;;;;;;;;;5086906;28;20247;-67
2022/08/15 00:16:37;;;;;;;0.00;0.00;;;;;;;;;;5085008;28;20468;-67
2022/08/15 00:19:06;;;;;;;0.00;0.00;;;;;;;;;;5086679;28;20222;-68
2022/08/15 00:21:33;;;;;;;0.00;0.00;;;;;;;;;;5084485;28;20239;-68
2022/08/15 00:23:59;;;;;;;0.00;0.00;;;;;;;;;;5087351;28;20495;-68
2022/08/15 00:26:26;;;;;;;0.00;0.00;;;;;;;;;;5083857;28;20302;-66
2022/08/15 00:28:54;;;;;;;0.00;0.00;;;;;;;;;;5088028;28;20274;-67
2022/08/15 00:31:20;;;;;;;0.00;0.00;;;;;;;;;;5082546;28;20315;-67
2022/08/15 00:33:47;;;;;;;0.03;0.03;;;;;;;;;;5088937;28;20191;-68
2022/08/15 00:36:14;;;;;;;0.00;0.00;;;;;;;;;;5082033;28;20309;-67
2022/08/15 00:38:40;;;;;;;0.00;0.00;;;;;;;;;;5089078;28;20203;-67
2022/08/15 00:43:57;;;;;;;0.00;0.00;;;;;;;;;;5087771;28;20186;-68
2022/08/15 00:46:25;;;;;;;0.00;0.00;;;;;;;;;;5082851;28;20242;-67
2022/08/15 00:48:51;;;;;;;0.00;0.00;;;;;;;;;;5088125;28;20224;-67
2022/08/15 00:51:19;;;;;;;0.00;0.00;;;;;;;;;;5081950;28;20245;-68
2022/08/15 00:53:58;;;;;;;0.00;0.00;;;;;;;;;;5088609;28;20234;-67
2022/08/15 00:56:28;;;;;;;0.00;0.00;;;;;;;;;;5082667;28;20238;-67
2022/08/15 00:58:55;;;;;;;0.00;0.00;;;;;;;;;;5087740;28;20446;-68
2022/08/15 01:01:22;;;;;;;0.00;0.00;;;;;;;;;;5082476;28;20472;-68
2022/08/15 01:03:50;;;;;;;0.00;0.00;;;;;;;;;;5087853;28;20231;-67
2022/08/15 01:06:17;;;;;;;0.00;0.00;;;;;;;;;;5081600;28;20298;-68
2022/08/15 01:08:45;;;;;;;0.00;0.00;;;;;;;;;;5088380;28;20203;-66
2022/08/15 01:11:15;;;;;;;0.05;0.05;;;;;;;;;;5080765;28;20662;-68
2022/08/15 01:13:42;;;;;;;0.00;0.00;;;;;;;;;;5089348;28;20222;-68
2022/08/15 01:16:10;;;;;;;0.00;0.00;;;;;;;;;;5079612;28;20312;-67
2022/08/15 01:18:37;;;;;;;0.00;0.00;;;;;;;;;;5089671;28;20277;-68
2022/08/15 01:21:07;;;;;;;0.00;0.00;;;;;;;;;;5079688;28;20244;-67
2022/08/15 01:23:37;;;;;;;0.00;0.00;;;;;;;;;;5089524;28;20266;-67
2022/08/15 01:26:06;;;;;;;0.00;0.00;;;;;;;;;;5079677;28;20448;-66
2022/08/15 01:28:36;;;;;;;0.00;0.00;;;;;;;;;;5089665;28;20384;-68
2022/08/15 01:31:04;;;;;;;0.00;0.00;;;;;;;;;;5079259;28;20348;-68
2022/08/15 01:33:32;;;;;;;0.00;0.00;;;;;;;;;;5089978;28;20187;-67
2022/08/15 01:35:59;;;;;;;0.00;0.00;;;;;;;;;;5078471;28;20250;-67
2022/08/15 01:38:27;;;;;;;0.00;0.00;;;;;;;;;;5090483;28;20226;-67
2022/08/15 01:40:59;;;;;;;0.00;0.00;;;;;;;;;;5078053;28;20305;-67
2022/08/15 01:43:29;;;;;;;0.00;0.00;;;;;;;;;;5090416;28;20241;-66
2022/08/15 01:45:58;;;;;;;0.10;0.10;;;;;;;;;;5078614;28;20242;-66
2022/08/15 01:48:25;;;;;;;0.00;0.00;;;;;;;;;;5070134;28;20413;-67
2022/08/15 01:50:54;;;;;;;0.00;0.00;;;;;;;;;;5057640;28;20424;-66
2022/08/15 01:53:23;;;;;;;0.00;0.00;;;;;;;;;;5070764;28;20271;-68
2022/08/15 01:55:51;;;;;;;0.00;0.00;;;;;;;;;;5057376;28;20300;-66
2022/08/15 01:58:18;;;;;;;0.00;0.00;;;;;;;;;;5071181;28;20479;-67
2022/08/15 02:00:52;;;;;;;0.00;0.00;;;;;;;;;;5056334;28;20239;-67
2022/08/15 02:03:19;;;;;;;0.00;0.00;;;;;;;;;;5070964;28;20471;-67
2022/08/15 02:05:45;;;;;;;0.00;0.00;;;;;;;;;;5056764;28;20493;-67
2022/08/15 02:08:12;;;;;;;0.00;0.00;;;;;;;;;;5071417;28;20295;-66
2022/08/15 02:10:38;;;;;;;0.00;0.00;;;;;;;;;;5055772;28;20319;-68
2022/08/15 02:13:04;;;;;;;0.00;0.00;;;;;;;;;;5072571;28;20198;-68
2022/08/15 02:15:31;;;;;;;0.00;0.00;;;;;;;;;;5054711;28;20696;-67
2022/08/15 02:17:59;;;;;;;0.00;0.00;;;;;;;;;;5073436;28;20239;-67
2022/08/15 02:20:25;;;;;;;0.00;0.00;;;;;;;;;;5054085;28;20255;-66
2022/08/15 02:22:51;;;;;;;0.00;0.00;;;;;;;;;;5074228;28;20219;-67
2022/08/15 02:25:18;;;;;;;0.00;0.00;;;;;;;;;;5053010;28;20271;-68
2022/08/15 02:27:44;;;;;;;0.00;0.00;;;;;;;;;;5078167;28;20199;-66
2022/08/15 02:30:12;;;;;;;0.57;0.57;;;;;;;;;;5056038;28;20231;-67
2022/08/15 02:32:40;;;;;;;0.00;0.00;;;;;;;;;;5079736;28;20280;-66
2022/08/15 02:35:11;;;;;;;0.00;0.00;;;;;;;;;;5055664;28;20283;-68
2022/08/15 02:37:38;;;;;;;0.00;0.00;;;;;;;;;;5079906;28;20192;-68
2022/08/15 02:40:07;;;;;;;0.00;0.00;;;;;;;;;;5063003;28;20204;-66
2022/08/15 02:42:35;;;;;;;0.00;0.00;;;;;;;;;;5080062;28;20267;-67
2022/08/15 02:45:02;;;;;;;0.00;0.00;;;;;;;;;;5065206;28;20204;-67
2022/08/15 02:47:29;;;;;;;0.00;0.00;;;;;;;;;;5070196;28;20436;-67
2022/08/15 02:49:55;;;;;;;0.00;0.00;;;;;;;;;;5065060;28;20407;-67
2022/08/15 02:52:23;;;;;;;0.00;0.00;;;;;;;;;;5070217;28;20247;-68
2022/08/15 02:54:50;;;;;;;0.00;0.00;;;;;;;;;;5065014;28;20223;-67
2022/08/15 02:57:16;;;;;;;0.00;0.00;;;;;;;;;;5070150;28;20239;-67
2022/08/15 02:59:42;;;;;;;0.00;0.00;;;;;;;;;;5064775;28;20238;-67
2022/08/15 03:02:10;;;;;;;0.00;0.00;;;;;;;;;;5070225;28;20253;-67
2022/08/15 03:04:37;;;;;;;0.00;0.00;;;;;;;;;;5064529;28;20263;-66
2022/08/15 03:07:03;;;;;;;0.00;0.00;;;;;;;;;;5069637;28;20259;-66
2022/08/15 03:09:31;;;;;;;0.00;0.00;;;;;;;;;;5064820;28;20211;-67
2022/08/15 03:11:57;;;;;;;0.00;0.00;;;;;;;;;;5069060;28;20483;-67
2022/08/15 03:14:24;;;;;;;0.00;0.00;;;;;;;;;;5065298;28;20398;-66
2022/08/15 03:16:51;;;;;;;0.00;0.00;;;;;;;;;;5067957;28;20265;-68
2022/08/15 03:19:20;;;;;;;0.00;0.00;;;;;;;;;;5066088;28;20204;-67
2022/08/15 03:21:46;;;;;;;0.00;0.00;;;;;;;;;;5067170;28;20246;-67
2022/08/15 03:24:13;;;;;;;0.00;0.00;;;;;;;;;;5066268;28;20234;-67
2022/08/15 03:26:46;;;;;;;0.00;0.00;;;;;;;;;;5066394;28;20337;-66
2022/08/15 03:29:15;;;;;;;0.00;0.00;;;;;;;;;;5067105;28;20483;-67
2022/08/15 03:31:41;;;;;;;0.00;0.00;;;;;;;;;;5066391;28;20239;-67
2022/08/15 03:34:07;;;;;;;0.00;0.00;;;;;;;;;;5067241;28;20530;-67
2022/08/15 03:36:34;;;;;;;0.00;0.00;;;;;;;;;;5065664;28;20243;-67
2022/08/15 03:39:00;;;;;;;0.00;0.00;;;;;;;;;;5067606;28;20231;-66
2022/08/15 03:41:26;;;;;;;0.00;0.00;;;;;;;;;;5064611;28;20477;-66
2022/08/15 03:43:54;;;;;;;0.00;0.00;;;;;;;;;;5068888;28;20430;-67
2022/08/15 03:46:21;;;;;;;0.00;0.00;;;;;;;;;;5063442;28;20261;-67
2022/08/15 03:48:50;;;;;;;0.00;0.00;;;;;;;;;;5069662;28;20325;-67
2022/08/15 03:51:18;;;;;;;0.00;0.00;;;;;;;;;;5062834;28;20242;-69
2022/08/15 03:53:46;;;;;;;0.00;0.00;;;;;;;;;;5069780;28;20203;-67
2022/08/15 03:56:13;;;;;;;0.00;0.00;;;;;;;;;;5062405;28;20237;-68
2022/08/15 03:58:40;;;;;;;0.00;0.00;;;;;;;;;;5070001;28;20226;-66
2022/08/15 04:01:11;;;;;;;0.00;0.00;;;;;;;;;;5061164;28;20243;-67
2022/08/15 04:03:38;;;;;;;0.00;0.00;;;;;;;;;;5070744;28;20212;-67
2022/08/15 04:06:06;;;;;;;0.00;0.00;;;;;;;;;;5060403;28;20298;-66
2022/08/15 04:08:33;;;;;;;0.00;0.00;;;;;;;;;;5071541;28;20204;-67
2022/08/15 04:11:01;;;;;;;0.00;0.00;;;;;;;;;;5060269;28;20243;-67
2022/08/15 04:13:27;;;;;;;0.00;0.00;;;;;;;;;;5071339;28;20235;-66
2022/08/15 04:15:54;;;;;;;0.00;0.00;;;;;;;;;;5059672;28;20447;-67
2022/08/15 04:18:23;;;;;;;0.00;0.00;;;;;;;;;;5072468;28;20214;-66
2022/08/15 04:20:49;;;;;;;0.00;0.00;;;;;;;;;;5058933;28;20306;-67
2022/08/15 04:23:16;;;;;;;0.00;0.00;;;;;;;;;;5072269;28;20228;-67
2022/08/15 04:25:43;;;;;;;0.00;0.00;;;;;;;;;;5057948;28;20310;-67
2022/08/15 04:28:10;;;;;;;0.00;0.00;;;;;;;;;;5073749;28;20563;-66
2022/08/15 04:30:38;;;;;;;0.00;0.00;;;;;;;;;;5056936;28;20446;-66
2022/08/15 04:33:09;;;;;;;0.00;0.00;;;;;;;;;;5073909;28;20212;-67
2022/08/15 04:35:37;;;;;;;0.00;0.00;;;;;;;;;;5056943;28;20387;-66
2022/08/15 04:38:03;;;;;;;0.00;0.00;;;;;;;;;;5074435;28;20204;-67
2022/08/15 04:40:30;;;;;;;0.00;0.00;;;;;;;;;;5056068;28;20250;-66
2022/08/15 04:42:58;;;;;;;0.08;0.08;;;;;;;;;;5075279;28;20344;-67
2022/08/15 04:45:25;;;;;;;0.00;0.00;;;;;;;;;;5055517;28;20243;-67
2022/08/15 04:47:51;;;;;;;0.00;0.00;;;;;;;;;;5075616;28;20311;-68
2022/08/15 04:50:17;;;;;;;0.00;0.00;;;;;;;;;;5053640;28;20378;-66
2022/08/15 04:52:46;;;;;;;0.00;0.00;;;;;;;;;;5076107;28;20216;-66
2022/08/15 04:55:13;;;;;;;0.00;0.00;;;;;;;;;;5053535;28;20390;-66
2022/08/15 04:57:40;;;;;;;0.00;0.00;;;;;;;;;;5076879;28;20440;-67
2022/08/15 05:00:09;;;;;;;0.00;0.00;;;;;;;;;;5053426;28;20240;-67
2022/08/15 05:02:35;;;;;;;0.00;0.00;;;;;;;;;;5077361;28;20266;-68
2022/08/15 05:05:01;;;;;;;0.00;0.00;;;;;;;;;;5062515;28;20399;-66
2022/08/15 05:07:28;;;;;;;0.00;0.00;;;;;;;;;;5067442;28;20255;-66
2022/08/15 05:09:56;;;;;;;0.00;0.00;;;;;;;;;;5061988;28;20245;-67
2022/08/15 05:12:23;;;;;;;0.00;0.00;;;;;;;;;;5067475;28;20238;-67
2022/08/15 05:14:49;;;;;;;0.00;0.00;;;;;;;;;;5062000;28;20200;-67
2022/08/15 05:17:16;;;;;;;0.00;0.00;;;;;;;;;;5067371;28;20243;-67
2022/08/15 05:19:42;;;;;;;0.00;0.00;;;;;;;;;;5062107;28;20227;-66
2022/08/15 05:22:09;;;;;;;0.00;0.00;;;;;;;;;;5067198;28;20316;-67
2022/08/15 05:24:35;;;;;;;0.00;0.00;;;;;;;;;;5062087;28;20228;-67
2022/08/15 05:27:04;;;;;;;0.00;0.00;;;;;;;;;;5067188;28;20255;-68
2022/08/15 05:29:31;;;;;;;0.00;0.00;;;;;;;;;;5061920;28;20258;-66
2022/08/15 05:31:58;;;;;;;0.00;0.00;;;;;;;;;;5066190;28;20436;-66
2022/08/15 05:34:24;;;;;;;0.00;0.00;;;;;;;;;;5062584;28;20271;-69
2022/08/15 05:36:50;;;;;;;0.00;0.00;;;;;;;;;;5065202;28;20430;-67
2022/08/15 05:39:19;;;;;;;0.00;0.00;;;;;;;;;;5063361;28;20200;-67
2022/08/15 05:41:48;;;;;;;0.00;0.00;;;;;;;;;;5064541;28;20266;-66
2022/08/15 05:44:20;;;;;;;0.00;0.00;;;;;;;;;;5063906;28;20315;-67
2022/08/15 05:46:52;;;;;;;0.00;0.00;;;;;;;;;;5064974;28;20262;-67
2022/08/15 05:49:24;;;;;;;0.00;0.00;;;;;;;;;;5063712;28;20200;-66
2022/08/15 05:51:55;;;;;;;0.00;0.00;;;;;;;;;;5065439;28;20266;-66
2022/08/15 05:54:26;;;;;;;0.00;0.00;;;;;;;;;;5062976;28;20481;-67
2022/08/15 05:56:56;;;;;;;0.00;0.00;;;;;;;;;;5065433;28;20245;-67
2022/08/15 05:59:28;;;;;;;0.00;0.00;;;;;;;;;;5063048;28;20204;-67
2022/08/15 06:01:59;;;;;;;0.00;0.00;;;;;;;;;;5068190;28;20251;-66
2022/08/15 06:04:34;;;;;;;0.00;0.00;;;;;;;;;;5069577;28;20222;-66
2022/08/15 06:07:02;;;;;;;0.00;0.00;;;;;;;;;;5073035;28;20305;-66
2022/08/15 06:09:32;;;;;;;0.00;0.00;;;;;;;;;;5068692;28;20213;-66
2022/08/15 06:11:59;;;;;;;0.00;0.00;;;;;;;;;;5072928;28;20526;-71
2022/08/15 06:14:29;;;;;;;0.00;0.00;;;;;;;;;;5068779;28;20208;-70
2022/08/15 06:16:57;;;;;;;0.00;0.00;;;;;;;;;;5072152;28;20243;-70
2022/08/15 06:19:25;;;;;;;0.00;0.00;;;;;;;;;;5069087;28;20291;-70
2022/08/15 06:21:55;;;;;;;0.00;0.00;;;;;;;;;;5071396;28;20246;-70
2022/08/15 06:24:26;;;;;;;0.00;0.00;;;;;;;;;;5068827;28;20291;-70
2022/08/15 06:26:55;;;;;;;0.00;0.00;;;;;;;;;;5071669;28;20325;-70
2022/08/15 06:29:27;;;;;;;0.00;0.00;;;;;;;;;;5069054;28;20211;-69
2022/08/15 06:31:58;;;;;;;0.00;0.00;;;;;;;;;;5071505;28;20242;-69
2022/08/15 06:34:28;;;;;;;0.00;0.00;;;;;;;;;;5068615;28;20239;-69
2022/08/15 06:37:00;;;;;;;0.00;0.00;;;;;;;;;;5071693;28;20325;-70
2022/08/15 06:39:32;;;;;;;0.00;0.00;;;;;;;;;;5068300;28;20260;-70
2022/08/15 06:42:02;;;;;;;0.00;0.00;;;;;;;;;;5072137;28;20257;-70
2022/08/15 06:44:30;;;;;;;0.00;0.00;;;;;;;;;;5068044;28;20224;-70
2022/08/15 06:47:03;;;;;;;0.00;0.00;;;;;;;;;;5071681;28;20554;-70
2022/08/15 06:49:32;;;;;;;0.00;0.00;;;;;;;;;;5068332;28;20263;-70
2022/08/15 06:51:59;;;;;;;0.00;0.00;;;;;;;;;;5072395;28;20249;-69
2022/08/15 06:54:26;;;;;;;0.00;0.00;;;;;;;;;;5068335;28;20200;-70
2022/08/15 06:56:57;;;;;;;0.00;0.00;;;;;;;;;;5071672;28;20239;-71
2022/08/15 06:59:25;;;;;;;0.00;0.00;;;;;;;;;;5068890;28;20192;-70
2022/08/15 07:01:54;;;;;;;0.00;0.00;;;;;;;;;;5071339;28;20239;-70
2022/08/15 07:04:26;;;;;;;0.00;0.00;;;;;;;;;;5068402;28;20231;-70
2022/08/15 07:06:55;;;;;;;0.00;0.00;;;;;;;;;;5071380;28;20334;-69
2022/08/15 07:09:32;;;;;;;0.00;0.00;;;;;;;;;;5069080;28;20436;-71
2022/08/15 07:12:05;;;;;;;0.00;0.00;;;;;;;;;;5071441;28;20298;-73
2022/08/15 07:14:35;;;;;;;0.00;0.00;;;;;;;;;;5064407;28;20196;-73
2022/08/15 07:17:04;;;;;;;0.00;0.00;;;;;;;;;;5069395;28;20468;-74
2022/08/15 07:19:32;;;;;;;0.00;0.00;;;;;;;;;;5065122;28;20243;-73
2022/08/15 07:21:58;;;;;;;0.00;0.00;;;;;;;;;;5069065;28;20239;-73
2022/08/15 07:24:30;;;;;;;0.00;0.00;;;;;;;;;;5065220;28;20250;-73
2022/08/15 07:26:59;;;;;;;0.00;0.00;;;;;;;;;;5068942;28;20797;-73
2022/08/15 07:29:28;;;;;;;0.00;0.00;;;;;;;;;;5065348;28;20211;-73
2022/08/15 07:31:59;;;;;;;0.00;0.00;;;;;;;;;;5068426;28;20239;-74
2022/08/15 07:34:26;;;;;;;0.00;0.00;;;;;;;;;;5065585;28;20251;-73
2022/08/15 07:36:57;;;;;;;0.00;0.00;;;;;;;;;;5068241;28;20239;-73
2022/08/15 07:39:26;;;;;;;0.00;0.00;;;;;;;;;;5065532;28;20192;-74
2022/08/15 07:41:53;;;;;;;0.00;0.00;;;;;;;;;;5068639;28;20238;-73
2022/08/15 07:44:21;;;;;;;0.00;0.00;;;;;;;;;;5065851;28;20223;-73
2022/08/15 07:46:51;;;;;;;0.00;0.00;;;;;;;;;;5067483;28;20325;-72
2022/08/15 07:49:20;;;;;;;0.00;0.00;;;;;;;;;;5066197;28;20192;-72
2022/08/15 07:51:49;;;;;;;0.00;0.00;;;;;;;;;;5067581;28;20239;-72
2022/08/15 07:54:25;;;;;;;0.00;0.00;;;;;;;;;;5066216;28;20200;-73
2022/08/15 07:56:53;;;;;;;0.00;0.00;;;;;;;;;;5067856;28;20340;-72
2022/08/15 07:59:22;;;;;;;0.00;0.00;;;;;;;;;;5065541;28;20472;-73
2022/08/15 08:01:50;;;;;;;0.00;0.00;;;;;;;;;;5067213;28;20249;-72
2022/08/15 08:04:19;;;;;;;0.00;0.00;;;;;;;;;;5065951;28;20231;-74
2022/08/15 08:06:48;;;;;;;0.00;0.00;;;;;;;;;;5066931;28;20415;-72
2022/08/15 08:09:20;;;;;;;0.00;0.00;;;;;;;;;;5066255;28;20246;-74
2022/08/15 08:11:50;;;;;;;0.00;0.00;;;;;;;;;;5066887;28;20246;-72
2022/08/15 08:14:22;;;;;;;0.00;0.00;;;;;;;;;;5066114;28;20344;-73
2022/08/15 08:16:52;;;;;;;0.00;0.00;;;;;;;;;;5067089;28;20259;-74
2022/08/15 08:19:24;;;;;;;0.00;0.00;;;;;;;;;;5065492;28;20258;-73
2022/08/15 08:21:53;;;;;;;0.00;0.00;;;;;;;;;;5067338;28;20277;-73
2022/08/15 08:24:25;;;;;;;0.00;0.00;;;;;;;;;;5064878;28;20259;-73
2022/08/15 08:26:55;;;;;;;0.00;0.00;;;;;;;;;;5067201;28;20485;-72
2022/08/15 08:29:27;;;;;;;0.00;0.00;;;;;;;;;;5065258;28;20208;-73
2022/08/15 08:32:01;;;;;;;0.00;0.00;;;;;;;;;;5067428;28;20243;-74
2022/08/15 08:34:33;;;;;;;0.00;0.00;;;;;;;;;;5063971;28;20195;-72
2022/08/15 08:37:02;;;;;;;0.00;0.00;;;;;;;;;;5068109;28;20424;-72
2022/08/15 08:39:43;;;;;;;0.00;0.00;;;;;;;;;;5063677;28;20420;-73
2022/08/15 08:42:18;;;;;;;0.00;0.00;;;;;;;;;;5068408;28;20250;-73
2022/08/15 08:44:50;;;;;;;0.00;0.00;;;;;;;;;;5063129;28;20414;-73
2022/08/15 08:47:28;;;;;;;0.00;0.00;;;;;;;;;;5068375;28;20239;-73
2022/08/15 08:50:04;;;;;;;0.00;0.00;;;;;;;;;;5062979;28;20192;-73
2022/08/15 08:52:35;;;;;;;0.00;0.00;;;;;;;;;;5051595;28;20269;-73
2022/08/15 08:55:05;;;;;;;0.00;0.00;;;;;;;;;;5062951;28;20193;-72
2022/08/15 08:57:34;;;;;;;0.00;0.00;;;;;;;;;;5051667;28;20222;-73
2022/08/15 09:00:02;;;;;;;0.00;0.00;;;;;;;;;;5063280;28;20279;-73
2022/08/15 09:02:32;;;;;;;0.00;0.00;;;;;;;;;;5068456;28;20298;-72
2022/08/15 09:05:01;;;;;;;0.00;0.00;;;;;;;;;;5063138;28;20228;-72
2022/08/15 09:07:30;;;;;;;0.00;0.00;;;;;;;;;;5068272;28;20274;-72
2022/08/15 09:10:00;;;;;;;0.00;0.00;;;;;;;;;;5063006;28;20254;-72
2022/08/15 09:15:15;;;;;;;0.00;0.00;;;;;;;;;;5053754;28;20190;-73
2022/08/15 09:17:43;;;;;;;0.00;0.00;;;;;;;;;;5076993;28;20254;-71
2022/08/15 09:20:12;;;;;;;0.00;0.00;;;;;;;;;;5053378;28;20247;-72
2022/08/15 09:22:39;;;;;;;0.00;0.00;;;;;;;;;;5076911;28;20204;-71
2022/08/15 09:25:07;;;;;;;0.00;0.00;;;;;;;;;;5053421;28;20227;-72
2022/08/15 09:27:36;;;;;;;0.00;0.00;;;;;;;;;;5077635;28;20220;-73
2022/08/15 09:42:22;;;;;;;0.00;0.00;;;;;;;;;;5067801;28;20238;-73
2022/08/15 09:44:54;;;;;;;0.00;0.00;;;;;;;;;;5062275;28;20282;-73
2022/08/15 09:47:42;;;;;;;0.00;0.00;;;;;;;;;;5067903;28;20250;-72
2022/08/15 09:50:20;;;;;;;0.00;0.00;;;;;;;;;;5050824;28;20203;-72
2022/08/15 09:52:52;;;;;;;0.00;0.00;;;;;;;;;;5075714;28;20200;-72
2022/08/15 09:55:21;;;;;;;0.00;0.00;;;;;;;;;;5053891;28;20231;-73
2022/08/15 09:57:52;;;;;;;0.00;0.00;;;;;;;;;;5075721;28;20204;-73
2022/08/15 10:00:21;;;;;;;0.00;0.00;;;;;;;;;;5053829;28;20196;-72
2022/08/15 10:02:49;;;;;;;0.00;0.00;;;;;;;;;;5075666;28;20215;-72
2022/08/15 10:05:23;;;;;;;0.00;0.00;;;;;;;;;;5053890;28;20255;-73
2022/08/15 10:07:52;;;;;;;0.00;0.00;;;;;;;;;;5075752;28;20254;-73
2022/08/15 10:10:21;;;;;;;0.00;0.00;;;;;;;;;;5053919;28;20279;-72
2022/08/15 10:13:05;;;;;;;0.00;0.00;;;;;;;;;;5075751;28;20386;-73
2022/08/15 10:15:41;;;;;;;0.00;0.00;;;;;;;;;;5055406;28;20235;-73
2022/08/15 10:18:08;;;;;;;0.00;0.00;;;;;;;;;;5073188;28;20230;-74
2022/08/15 10:20:48;;;;;;;0.00;0.00;;;;;;;;;;5056403;28;20308;-73
2022/08/15 10:23:15;;;;;;;0.00;0.00;;;;;;;;;;5071586;28;20309;-73
2022/08/15 10:25:42;;;;;;;0.00;0.00;;;;;;;;;;5056311;28;20242;-72
2022/08/15 10:28:20;;;;;;;0.00;0.00;;;;;;;;;;5072337;28;20196;-72
2022/08/15 10:31:08;;;;;;;0.38;0.38;;;;;;;;;;5057190;28;20235;-73
2022/08/15 10:33:38;;;;;;;0.00;0.00;;;;;;;;;;5069345;28;20214;-73
2022/08/15 10:36:05;;;;;;;0.00;0.00;;;;;;;;;;5059522;28;20262;-73
2022/08/15 10:38:32;;;;;;;0.00;0.00;;;;;;;;;;5069070;28;20275;-73
2022/08/15 10:41:07;;;;;;;0.00;0.00;;;;;;;;;;5058095;28;20246;-74
2022/08/15 10:43:44;;;;;;;0.00;0.00;;;;;;;;;;5069298;28;20218;-74
2022/08/15 10:46:22;;;;;;;0.00;0.00;;;;;;;;;;5053280;28;20408;-73
2022/08/15 10:49:01;;;;;;;0.00;0.00;;;;;;;;;;5068710;28;20254;-73
2022/08/15 10:51:45;;;;;;;0.00;0.00;;;;;;;;;;5066048;28;20307;-73
2022/08/15 10:54:17;;;;;;;0.00;0.00;;;;;;;;;;5068072;28;20211;-73
2022/08/15 10:56:43;;;;;;;0.00;0.00;;;;;;;;;;5067826;28;20255;-72
2022/08/15 10:59:13;;;;;;;0.00;0.00;;;;;;;;;;5067770;28;20268;-74
2022/08/15 11:01:43;;;;;;;0.00;0.00;;;;;;;;;;5057112;28;20266;-74
2022/08/15 11:04:15;;;;;;;0.00;0.00;;;;;;;;;;5068048;28;20197;-74
2022/08/15 11:06:45;;;;;;;0.00;0.00;;;;;;;;;;5067304;28;20315;-75
2022/08/15 11:09:14;;;;;;;0.00;0.00;;;;;;;;;;5067700;28;20204;-74
2022/08/15 11:11:45;;;;;;;0.00;0.00;;;;;;;;;;5067517;28;20243;-73
2022/08/15 11:14:17;;;;;;;0.00;0.00;;;;;;;;;;5067391;28;20192;-74
2022/08/15 11:16:49;;;;;;;0.00;0.00;;;;;;;;;;5067737;28;20239;-74
2022/08/15 11:19:18;;;;;;;0.00;0.00;;;;;;;;;;5067088;28;20193;-73
2022/08/15 11:21:49;;;;;;;0.00;0.00;;;;;;;;;;5067529;28;20274;-73
2022/08/15 11:24:24;;;;;;;0.00;0.00;;;;;;;;;;5066746;28;20199;-75
2022/08/15 11:26:51;;;;;;;0.00;0.00;;;;;;;;;;5067071;28;20251;-73
2022/08/15 11:29:19;;;;;;;0.00;0.00;;;;;;;;;;5066500;28;20259;-74
2022/08/15 11:31:51;;;;;;;0.00;0.00;;;;;;;;;;5067399;28;20464;-74
2022/08/15 11:34:21;;;;;;;0.00;0.00;;;;;;;;;;5063320;28;20200;-73
2022/08/15 11:36:48;;;;;;;0.00;0.00;;;;;;;;;;5067712;28;20247;-74
2022/08/15 11:39:18;;;;;;;0.00;0.00;;;;;;;;;;5066532;28;20271;-73
2022/08/15 11:41:47;;;;;;;0.00;0.00;;;;;;;;;;5067006;28;20243;-73
2022/08/15 11:44:14;;;;;;;0.00;0.00;;;;;;;;;;5066855;28;20204;-73
2022/08/15 11:46:41;;;;;;;0.00;0.00;;;;;;;;;;5066285;28;20543;-73
2022/08/15 11:49:11;;;;;;;0.00;0.00;;;;;;;;;;5067608;28;20395;-73
2022/08/15 11:51:43;;;;;;;0.00;0.00;;;;;;;;;;5066079;28;20237;-73
2022/08/15 11:54:19;;;;;;;0.00;0.00;;;;;;;;;;5066932;28;20205;-74
2022/08/15 11:56:48;;;;;;;0.00;0.00;;;;;;;;;;5066779;28;20561;-73
2022/08/15 11:59:14;;;;;;;0.00;0.00;;;;;;;;;;5066058;28;20254;-74
2022/08/15 12:01:41;;;;;;;0.00;0.00;;;;;;;;;;5065818;28;20305;-72
2022/08/15 12:04:11;;;;;;;0.00;0.00;;;;;;;;;;5067723;28;20204;-73
2022/08/15 12:06:38;;;;;;;0.00;0.00;;;;;;;;;;5065614;28;20351;-74
2022/08/15 12:09:06;;;;;;;0.00;0.00;;;;;;;;;;5067040;28;20220;-73
2022/08/15 12:11:38;;;;;;;0.00;0.00;;;;;;;;;;5064943;28;20239;-73
2022/08/15 12:14:13;;;;;;;0.00;0.00;;;;;;;;;;5067200;28;20199;-74
2022/08/15 12:16:41;;;;;;;0.00;0.00;;;;;;;;;;5065880;28;20298;-74
2022/08/15 12:19:22;;;;;;;0.05;0.05;;;;;;;;;;5067097;28;20204;-74
2022/08/15 12:21:50;;;;;;;0.00;0.00;;;;;;;;;;5066593;28;20281;-74
2022/08/15 12:24:22;;;;;;;0.00;0.00;;;;;;;;;;5066084;28;20310;-73
2022/08/15 12:26:50;;;;;;;0.00;0.00;;;;;;;;;;5067059;28;20239;-74
2022/08/15 12:29:18;;;;;;;0.00;0.00;;;;;;;;;;5065359;28;20246;-73
2022/08/15 12:31:45;;;;;;;0.00;0.00;;;;;;;;;;5066131;28;20239;-75
2022/08/15 12:34:12;;;;;;;0.00;0.00;;;;;;;;;;5065988;28;20211;-74
2022/08/15 12:36:40;;;;;;;0.00;0.00;;;;;;;;;;5065426;28;20239;-74
2022/08/15 12:39:07;;;;;;;0.00;0.00;;;;;;;;;;5066871;28;20240;-74
2022/08/15 12:41:34;;;;;;;0.00;0.00;;;;;;;;;;5064556;28;20246;-73
2022/08/15 12:44:01;;;;;;;0.00;0.00;;;;;;;;;;5067259;28;20204;-74
2022/08/15 12:46:27;;;;;;;0.00;0.00;;;;;;;;;;5063549;28;20235;-74
2022/08/15 12:48:54;;;;;;;0.00;0.00;;;;;;;;;;5068248;28;20432;-73
2022/08/15 12:51:20;;;;;;;0.00;0.00;;;;;;;;;;5062554;28;20273;-73
2022/08/15 12:53:46;;;;;;;0.00;0.00;;;;;;;;;;5068720;28;20263;-73
2022/08/15 12:56:17;;;;;;;0.00;0.00;;;;;;;;;;5061702;28;20249;-73
2022/08/15 12:58:43;;;;;;;0.00;0.00;;;;;;;;;;5069174;28;20204;-73
2022/08/15 13:01:10;;;;;;;0.00;0.00;;;;;;;;;;5061256;28;20311;-73
2022/08/15 13:03:40;;;;;;;0.00;0.00;;;;;;;;;;5069841;28;20220;-74
2022/08/15 13:06:11;;;;;;;0.00;0.00;;;;;;;;;;5060438;28;20364;-74
2022/08/15 13:08:37;;;;;;;0.00;0.00;;;;;;;;;;5069874;28;20515;-72
2022/08/15 13:11:03;;;;;;;0.00;0.00;;;;;;;;;;5059350;28;20285;-73
2022/08/15 13:13:31;;;;;;;0.00;0.00;;;;;;;;;;5070231;28;20263;-72
2022/08/15 13:15:57;;;;;;;0.00;0.00;;;;;;;;;;5059199;28;20241;-73
2022/08/15 13:18:25;;;;;;;0.00;0.00;;;;;;;;;;5071484;28;20204;-73
2022/08/15 13:23:38;;;;;;;0.00;0.00;;;;;;;;;;5069872;28;20187;-72
2022/08/15 13:26:08;;;;;;;0.00;0.00;;;;;;;;;;5060221;28;20238;-73
2022/08/15 13:28:36;;;;;;;0.00;0.00;;;;;;;;;;5070032;28;20204;-74
2022/08/15 13:31:03;;;;;;;0.00;0.00;;;;;;;;;;5059387;28;20243;-73
2022/08/15 13:33:31;;;;;;;0.03;0.03;;;;;;;;;;5070740;28;20298;-73
2022/08/15 13:35:58;;;;;;;0.00;0.00;;;;;;;;;;5059308;28;20231;-73
2022/08/15 13:38:27;;;;;;;0.00;0.00;;;;;;;;;;5070643;28;20196;-72
2022/08/15 13:40:53;;;;;;;0.00;0.00;;;;;;;;;;5058499;28;20484;-73
2022/08/15 13:43:20;;;;;;;0.00;0.00;;;;;;;;;;5071624;28;20211;-73
2022/08/15 13:45:48;;;;;;;0.00;0.00;;;;;;;;;;5057580;28;20238;-72
2022/08/15 13:48:16;;;;;;;0.00;0.00;;;;;;;;;;5072073;28;20235;-74
2022/08/15 13:50:43;;;;;;;0.00;0.00;;;;;;;;;;5056766;28;20306;-72
2022/08/15 13:53:09;;;;;;;0.00;0.00;;;;;;;;;;5072828;28;20461;-74
2022/08/15 13:55:36;;;;;;;0.00;0.00;;;;;;;;;;5056049;28;20247;-73
2022/08/15 13:58:02;;;;;;;0.00;0.00;;;;;;;;;;5073483;28;20224;-73
2022/08/15 14:00:31;;;;;;;0.00;0.00;;;;;;;;;;5055392;28;20238;-73
2022/08/15 14:02:59;;;;;;;0.00;0.00;;;;;;;;;;5074176;28;20238;-73
2022/08/15 14:05:26;;;;;;;0.00;0.00;;;;;;;;;;5054788;28;20290;-73
2022/08/15 14:07:52;;;;;;;0.00;0.00;;;;;;;;;;5074446;28;20259;-74
2022/08/15 14:10:21;;;;;;;0.00;0.00;;;;;;;;;;5053694;28;20363;-74
2022/08/15 14:12:48;;;;;;;0.00;0.00;;;;;;;;;;5075489;28;20320;-73
2022/08/15 14:15:15;;;;;;;0.00;0.00;;;;;;;;;;5053343;28;20204;-75
2022/08/15 14:17:43;;;;;;;0.00;0.00;;;;;;;;;;5076194;28;20223;-75
2022/08/15 14:20:12;;;;;;;0.00;0.00;;;;;;;;;;5052372;28;20247;-76
2022/08/15 14:22:38;;;;;;;0.00;0.00;;;;;;;;;;5077666;28;20208;-74
2022/08/15 14:25:05;;;;;;;0.00;0.00;;;;;;;;;;5062289;28;20380;-73
2022/08/15 14:27:32;;;;;;;0.00;0.00;;;;;;;;;;5080863;28;20241;-72
2022/08/15 14:29:59;;;;;;;0.00;0.00;;;;;;;;;;5065493;28;20204;-73
2022/08/15 14:32:26;;;;;;;0.00;0.00;;;;;;;;;;5070712;28;20325;-74
2022/08/15 14:34:52;;;;;;;0.00;0.00;;;;;;;;;;5065399;28;20255;-73
2022/08/15 14:37:20;;;;;;;0.00;0.00;;;;;;;;;;5070823;28;20585;-73
2022/08/15 14:39:47;;;;;;;0.00;0.00;;;;;;;;;;5065055;28;20207;-73
2022/08/15 14:42:14;;;;;;;0.00;0.00;;;;;;;;;;5070494;28;20422;-77
2022/08/15 14:44:42;;;;;;;0.00;0.00;;;;;;;;;;5065592;28;20246;-74
2022/08/15 14:47:09;;;;;;;0.00;0.00;;;;;;;;;;5071038;28;20241;-74
2022/08/15 14:49:35;;;;;;;0.00;0.00;;;;;;;;;;5065886;28;20211;-74
2022/08/15 14:52:02;;;;;;;0.00;0.00;;;;;;;;;;5070554;28;20250;-74
2022/08/15 14:54:32;;;;;;;0.00;0.00;;;;;;;;;;5066109;28;20207;-76
2022/08/15 14:57:02;;;;;;;0.00;0.00;;;;;;;;;;5070213;28;20443;-74
2022/08/15 14:59:28;;;;;;;0.00;0.00;;;;;;;;;;5065742;28;20265;-75
2022/08/15 15:01:55;;;;;;;0.00;0.00;;;;;;;;;;5069655;28;20616;-75
2022/08/15 15:04:22;;;;;;;0.00;0.00;;;;;;;;;;5066381;28;20204;-74
2022/08/15 15:06:48;;;;;;;0.00;0.00;;;;;;;;;;5068502;28;20236;-75
2022/08/15 15:09:16;;;;;;;0.00;0.00;;;;;;;;;;5067217;28;20236;-75
2022/08/15 15:11:46;;;;;;;0.00;0.00;;;;;;;;;;5067653;28;20239;-76
2022/08/15 15:14:13;;;;;;;0.00;0.00;;;;;;;;;;5067611;28;20204;-75